Time;durP1;ratioP1;P1;durP2;ratioP2;P2;SDS_P1;SDS_P2;PMS_P1;PMS_P2;Temp;Humidity;BMP_temperature;BMP_pressure;BME280_temperature;BME280_humidity;BME280_pressure;Samples;Min_cycle;Max_cycle;Signal;HPM_P1;HPM_P2
2024/01/22 09:00:00;;;;;;;;;;;;;;;5.49;100.00;99621.56;5487945;23;20004;-80
2024/01/22 09:02:25;;;;;;;;;;;;;;;5.48;100.00;99609.34;4918830;29;19927;-79
2024/01/22 09:04:50;;;;;;;;;;;;;;;5.43;100.00;99615.56;4919076;29;20377;-80
2024/01/22 09:07:16;;;;;;;;;;;;;;;5.47;100.00;99608.47;4918653;29;19991;-81
2024/01/22 09:09:41;;;;;;;;;;;;;;;5.52;100.00;99601.38;4918821;29;20025;-87
2024/01/22 09:12:06;;;;;;;;;;;;;;;5.48;100.00;99598.84;4918630;29;19926;-79
2024/01/22 09:14:32;;;;;;;;;;;;;;;5.51;100.00;99601.41;4917369;29;20013;-79
2024/01/22 09:16:57;;;;;;;;;;;;;;;5.47;100.00;99595.34;4918435;29;19919;-79
2024/01/22 09:19:22;;;;;;;;;;;;;;;5.52;100.00;99600.47;4918435;29;19923;-78
2024/01/22 09:21:47;;;;;;;;;;;;;;;5.41;100.00;99599.00;4918479;29;20399;-77
2024/01/22 09:24:13;;;;;;;;;;;;;;;5.42;100.00;99594.59;4918531;29;19919;-79
2024/01/22 09:26:38;;;;;;;;;;;;;;;5.49;100.00;99584.78;4918179;29;19942;-80
2024/01/22 09:29:03;;;;;;;;;;;;;;;5.49;100.00;99590.03;4917025;29;20018;-78
2024/01/22 09:31:29;;;;;;;;;;;;;;;5.54;100.00;99582.94;4918227;29;19942;-79
2024/01/22 09:33:54;;;;;;;;;;;;;;;5.45;100.00;99578.75;4918598;29;20302;-79
2024/01/22 09:36:21;;;;;;;;;;;;;;;5.52;100.00;99577.72;4918099;29;19919;-78
2024/01/22 09:38:46;;;;;;;;;;;;;;;5.47;100.00;99579.56;4918222;29;19923;-78
2024/01/22 09:41:13;;;;;;;;;;;;;;;5.49;100.00;99569.00;4918381;29;19923;-77
2024/01/22 09:43:39;;;;;;;;;;;;;;;5.50;100.00;99576.00;4917674;29;19929;-78
2024/01/22 09:46:05;;;;;;;;;;;;;;;5.50;100.00;99571.59;4917626;29;19979;-78
2024/01/22 09:48:32;;;;;;;;;;;;;;;5.45;100.00;99571.72;4918376;29;20405;-78
2024/01/22 09:51:00;;;;;;;;;;;;;;;5.53;100.00;99565.41;4901315;29;19923;-77
2024/01/22 09:53:28;;;;;;;;;;;;;;;5.48;100.00;99572.56;4918089;29;20022;-79
2024/01/22 09:55:54;;;;;;;;;;;;;;;5.43;100.00;99560.38;4917416;29;19923;-77
2024/01/22 09:58:21;;;;;;;;;;;;;;;5.53;100.00;99560.16;4900697;29;20457;-79
2024/01/22 10:00:47;;;;;;;;;;;;;;;5.56;100.00;99552.19;4916577;29;20370;-78
2024/01/22 10:03:12;;;;;;;;;;;;;;;5.54;100.00;99540.88;4900754;29;19922;-78
2024/01/22 10:05:37;;;;;;;;;;;;;;;5.66;100.00;99545.78;4900759;29;19970;-80
2024/01/22 10:08:03;;;;;;;;;;;;;;;5.60;100.00;99541.56;4918014;29;19919;-79
2024/01/22 10:10:28;;;;;;;;;;;;;;;5.60;100.00;99557.34;4917555;29;19930;-79
2024/01/22 10:13:09;;;;;;;;;;;;;;;5.63;100.00;99549.38;4917577;29;19919;-77
2024/01/22 10:15:35;;;;;;;;;;;;;;;5.67;100.00;99538.78;4914330;29;19929;-77
2024/01/22 10:18:10;;;;;;;;;;;;;;;5.65;100.00;99546.72;4900464;29;19919;-77
2024/01/22 10:20:36;;;;;;;;;;;;;;;5.67;100.00;99541.41;4916801;29;20050;-77
2024/01/22 10:23:01;;;;;;;;;;;;;;;5.70;100.00;99542.19;4917453;29;20405;-78
2024/01/22 10:25:27;;;;;;;;;;;;;;;5.73;100.00;99539.47;4917236;29;20002;-81
2024/01/22 10:28:06;;;;;;;;;;;;;;;5.78;100.00;99534.09;4917707;29;19926;-78
2024/01/22 10:30:32;;;;;;;;;;;;;;;5.67;100.00;99512.50;4916574;29;19970;-79
2024/01/22 10:33:16;;;;;;;;;;;;;;;5.73;100.00;99525.47;4917390;29;19965;-79
2024/01/22 10:35:42;;;;;;;;;;;;;;;5.71;100.00;99527.25;4917320;29;19923;-81
2024/01/22 10:38:16;;;;;;;;;;;;;;;5.62;100.00;99523.97;4917366;29;19963;-78
2024/01/22 10:40:45;;;;;;;;;;;;;;;5.70;100.00;99530.81;4900152;29;19923;-78
2024/01/22 10:43:17;;;;;;;;;;;;;;;5.83;100.00;99521.69;4917554;29;19920;-75
2024/01/22 10:45:44;;;;;;;;;;;;;;;5.85;100.00;99513.75;4915968;29;19945;-80
2024/01/22 10:48:10;;;;;;;;;;;;;;;5.80;100.00;99511.25;4916779;29;19919;-75
2024/01/22 10:50:37;;;;;;;;;;;;;;;5.82;100.00;99509.41;4917258;29;20010;-78
2024/01/22 10:53:03;;;;;;;;;;;;;;;5.87;100.00;99511.94;4917558;29;19927;-80
2024/01/22 10:55:28;;;;;;;;;;;;;;;5.80;100.00;99517.34;4900152;29;19926;-78
2024/01/22 10:57:55;;;;;;;;;;;;;;;5.88;100.00;99519.78;4917168;29;19954;-80
2024/01/22 11:00:20;;;;;;;;;;;;;;;5.97;100.00;99523.97;4915447;29;20326;-79
2024/01/22 11:02:48;;;;;;;;;;;;;;;6.03;100.00;99525.53;4916661;29;19923;-80
2024/01/22 11:05:14;;;;;;;;;;;;;;;5.95;100.00;99518.72;4916612;29;19946;-82
2024/01/22 11:07:40;;;;;;;;;;;;;;;6.02;100.00;99527.31;4916654;29;19981;-80
2024/01/22 11:10:07;;;;;;;;;;;;;;;6.05;100.00;99516.72;4916561;29;19974;-78
2024/01/22 11:12:41;;;;;;;;;;;;;;;6.02;100.00;99511.53;4916359;29;20391;-77
2024/01/22 11:15:06;;;;;;;;;;;;;;;5.98;100.00;99526.56;4915035;29;19920;-80
2024/01/22 11:17:31;;;;;;;;;;;;;;;6.54;100.00;99524.91;4916261;29;20359;-80
2024/01/22 11:20:20;;;;;;;;;;;;;;;6.69;100.00;99524.44;4899665;29;19919;-79
2024/01/22 11:23:01;;;;;;;;;;;;;;;6.32;100.00;99514.19;4916268;29;19974;-81
2024/01/22 11:25:26;;;;;;;;;;;;;;;6.20;100.00;99509.28;4916220;29;19920;-82
2024/01/22 11:28:00;;;;;;;;;;;;;;;6.16;100.00;99519.03;4916337;29;19983;-80
2024/01/22 11:30:25;;;;;;;;;;;;;;;6.15;100.00;99518.16;4914802;29;19958;-78
2024/01/22 11:32:50;;;;;;;;;;;;;;;6.18;100.00;99502.28;4916294;29;20504;-78
2024/01/22 11:35:45;;;;;;;;;;;;;;;6.12;100.00;99498.97;4898985;29;19919;-78
2024/01/22 11:38:11;;;;;;;;;;;;;;;6.16;100.00;99483.06;4907535;29;19919;-76
2024/01/22 11:40:52;;;;;;;;;;;;;;;6.11;100.00;99489.34;4915939;29;20402;-76
2024/01/22 11:43:19;;;;;;;;;;;;;;;6.14;100.00;99469.09;4916227;29;19926;-76
2024/01/22 11:45:45;;;;;;;;;;;;;;;6.14;100.00;99478.75;4914370;29;20017;-84
2024/01/22 11:48:14;;;;;;;;;;;;;;;6.11;100.00;99465.69;4898834;29;20021;-77
2024/01/22 11:50:40;;;;;;;;;;;;;;;6.21;100.00;99475.03;4916117;29;19974;-80
2024/01/22 11:53:06;;;;;;;;;;;;;;;6.19;100.00;99471.59;4899035;29;19981;-75
2024/01/22 11:55:31;;;;;;;;;;;;;;;6.21;100.00;99461.88;4898141;29;19931;-79
2024/01/22 11:57:56;;;;;;;;;;;;;;;6.15;100.00;99464.69;4915455;29;20367;-81
2024/01/22 12:00:22;;;;;;;;;;;;;;;6.24;100.00;99463.53;4913411;29;19970;-79
2024/01/22 12:02:49;;;;;;;;;;;;;;;6.26;100.00;99461.75;4898847;29;20299;-78
2024/01/22 12:05:18;;;;;;;;;;;;;;;6.23;100.00;99473.22;4898796;29;20441;-81
2024/01/22 12:07:44;;;;;;;;;;;;;;;6.23;100.00;99457.44;4898879;29;19950;-78
2024/01/22 12:10:26;;;;;;;;;;;;;;;6.18;100.00;99469.84;4911720;29;20383;-79
2024/01/22 12:12:55;;;;;;;;;;;;;;;6.20;100.00;99452.25;4914499;29;19963;-77
2024/01/22 12:15:22;;;;;;;;;;;;;;;6.20;100.00;99446.13;4914575;29;19927;-77
2024/01/22 12:17:48;;;;;;;;;;;;;;;6.26;100.00;99446.81;4915672;29;20367;-78
2024/01/22 12:20:13;;;;;;;;;;;;;;;6.24;100.00;99426.69;4914963;29;19958;-78
2024/01/22 12:22:39;;;;;;;;;;;;;;;6.37;100.00;99441.22;4915582;29;19958;-78
2024/01/22 12:25:05;;;;;;;;;;;;;;;6.24;100.00;99437.22;4915840;29;19926;-75
2024/01/22 12:27:30;;;;;;;;;;;;;;;6.20;100.00;99431.19;4914184;29;19915;-77
2024/01/22 12:30:03;;;;;;;;;;;;;;;6.21;100.00;99432.94;4914469;29;19927;-80
2024/01/22 12:32:28;;;;;;;;;;;;;;;6.30;100.00;99435.28;4898223;29;20429;-75
2024/01/22 12:34:54;;;;;;;;;;;;;;;6.23;100.00;99428.47;4915733;29;19923;-76
2024/01/22 12:37:21;;;;;;;;;;;;;;;6.14;100.00;99434.00;4915500;29;19971;-77
2024/01/22 12:39:48;;;;;;;;;;;;;;;6.22;100.00;99426.75;4914994;29;19919;-79
2024/01/22 12:42:18;;;;;;;;;;;;;;;6.23;100.00;99425.84;4914725;29;19969;-78
2024/01/22 12:44:54;;;;;;;;;;;;;;;6.23;100.00;99412.69;4914298;29;19966;-78
2024/01/22 12:47:19;;;;;;;;;;;;;;;6.25;100.00;99412.66;4898267;29;19919;-77
2024/01/22 12:49:44;;;;;;;;;;;;;;;6.25;100.00;99439.81;4915400;29;19957;-78
2024/01/22 12:52:10;;;;;;;;;;;;;;;6.29;100.00;99417.78;4915427;29;19923;-81
2024/01/22 12:54:35;;;;;;;;;;;;;;;6.27;100.00;99402.94;4915307;29;19942;-79
2024/01/22 12:57:00;;;;;;;;;;;;;;;6.26;100.00;99401.22;4915470;29;19946;-79
2024/01/22 12:59:26;;;;;;;;;;;;;;;6.32;100.00;99408.94;4914090;29;19919;-76
2024/01/22 13:01:51;;;;;;;;;;;;;;;6.39;100.00;99406.97;4915012;29;20271;-80
2024/01/22 13:04:16;;;;;;;;;;;;;;;6.26;100.00;99409.13;4915502;29;19920;-79
2024/01/22 13:06:42;;;;;;;;;;;;;;;6.26;100.00;99409.13;4915255;29;20446;-78
2024/01/22 13:09:07;;;;;;;;;;;;;;;6.28;100.00;99408.13;4915389;29;19974;-79
2024/01/22 13:11:32;;;;;;;;;;;;;;;6.29;100.00;99398.50;4918482;29;19919;-77
2024/01/22 13:13:57;;;;;;;;;;;;;;;6.30;100.00;99387.94;4900509;29;19926;-79
2024/01/22 13:16:23;;;;;;;;;;;;;;;6.29;100.00;99399.34;4918458;29;19919;-83
2024/01/22 13:18:48;;;;;;;;;;;;;;;6.35;100.00;99401.78;4918589;29;20409;-79
2024/01/22 13:21:15;;;;;;;;;;;;;;;6.30;100.00;99382.66;4918434;29;19919;-80
2024/01/22 13:23:40;;;;;;;;;;;;;;;6.28;100.00;99384.47;4918360;29;19969;-79
2024/01/22 13:26:08;;;;;;;;;;;;;;;6.28;100.00;99375.72;4918289;29;19962;-79
2024/01/22 13:28:35;;;;;;;;;;;;;;;6.22;100.00;99389.91;4918228;29;19930;-78
2024/01/22 13:31:01;;;;;;;;;;;;;;;6.21;100.00;99393.47;4916992;29;19923;-82
2024/01/22 13:33:26;;;;;;;;;;;;;;;6.24;100.00;99388.13;4901462;29;19919;-80
2024/01/22 13:35:51;;;;;;;;;;;;;;;6.17;100.00;99397.09;4918365;29;19923;-83
2024/01/22 13:38:16;;;;;;;;;;;;;;;6.29;100.00;99411.66;4918136;29;20375;-78
2024/01/22 13:40:41;;;;;;;;;;;;;;;6.21;100.00;99406.63;4918076;29;19931;-79
2024/01/22 13:43:07;;;;;;;;;;;;;;;6.25;100.00;99387.19;4917787;29;19962;-81
2024/01/22 13:45:32;;;;;;;;;;;;;;;6.24;100.00;99385.50;4916819;29;19931;-80
2024/01/22 13:47:57;;;;;;;;;;;;;;;6.24;100.00;99369.69;4918026;29;19919;-76
2024/01/22 13:50:22;;;;;;;;;;;;;;;6.13;100.00;99367.41;4918157;29;19923;-80
2024/01/22 13:52:48;;;;;;;;;;;;;;;6.26;100.00;99373.13;4917692;29;20286;-80
2024/01/22 13:55:15;;;;;;;;;;;;;;;6.14;100.00;99390.19;4917916;29;19926;-79
2024/01/22 13:57:41;;;;;;;;;;;;;;;6.17;100.00;99383.94;4917073;29;19942;-78
2024/01/22 14:00:06;;;;;;;;;;;;;;;6.07;100.00;99369.38;4916283;29;20385;-78
2024/01/22 14:02:32;;;;;;;;;;;;;;;6.10;100.00;99371.91;4917726;29;20149;-78
2024/01/22 14:04:57;;;;;;;;;;;;;;;6.07;100.00;99374.63;4917540;29;19942;-78
2024/01/22 14:07:22;;;;;;;;;;;;;;;6.07;100.00;99419.34;4917829;29;19923;-78
2024/01/22 14:09:48;;;;;;;;;;;;;;;6.11;100.00;99415.69;4917643;29;19919;-77
2024/01/22 14:12:13;;;;;;;;;;;;;;;6.27;100.00;99447.66;4917743;29;19923;-76
2024/01/22 14:14:38;;;;;;;;;;;;;;;6.15;100.00;99451.53;4916196;29;20017;-85
2024/01/22 14:17:05;;;;;;;;;;;;;;;6.11;100.00;99447.25;4917536;29;19962;-78
2024/01/22 14:19:32;;;;;;;;;;;;;;;6.16;100.00;99440.13;4917275;29;19927;-78
2024/01/22 14:21:57;;;;;;;;;;;;;;;6.12;100.00;99441.09;4916416;29;19923;-77
2024/01/22 14:24:22;;;;;;;;;;;;;;;6.11;100.00;99445.50;4914515;29;20007;-78
2024/01/22 14:26:49;;;;;;;;;;;;;;;6.08;100.00;99448.22;4917190;29;20022;-77
2024/01/22 14:29:14;;;;;;;;;;;;;;;6.11;100.00;99449.91;4915936;29;19923;-79
2024/01/22 14:31:39;;;;;;;;;;;;;;;6.06;100.00;99452.66;4917159;29;19919;-82
2024/01/22 14:34:04;;;;;;;;;;;;;;;6.07;100.00;99450.91;4917301;29;19923;-81
2024/01/22 14:36:30;;;;;;;;;;;;;;;6.05;100.00;99450.06;4900329;29;19926;-79
2024/01/22 14:38:56;;;;;;;;;;;;;;;5.99;100.00;99456.38;4917063;29;20350;-78
2024/01/22 14:41:22;;;;;;;;;;;;;;;6.03;100.00;99460.66;4916782;29;19976;-78
2024/01/22 14:43:47;;;;;;;;;;;;;;;6.01;100.00;99467.72;4916022;29;19950;-80
2024/01/22 14:46:13;;;;;;;;;;;;;;;5.97;100.00;99487.16;4916436;29;19919;-80
2024/01/22 14:48:38;;;;;;;;;;;;;;;5.97;100.00;99482.72;4916880;29;19975;-78
2024/01/22 14:51:04;;;;;;;;;;;;;;;5.97;100.00;99492.41;4916826;29;19919;-79
2024/01/22 14:53:32;;;;;;;;;;;;;;;5.99;100.00;99483.53;4916824;29;20006;-77
2024/01/22 14:55:57;;;;;;;;;;;;;;;6.00;100.00;99501.06;4916129;29;20462;-80
2024/01/22 14:58:22;;;;;;;;;;;;;;;5.99;100.00;99507.22;4916888;29;20021;-78
2024/01/22 15:00:50;;;;;;;;;;;;;;;5.94;100.00;99508.22;4915081;29;19978;-79
2024/01/22 15:03:16;;;;;;;;;;;;;;;5.93;100.00;99499.47;4899701;29;19975;-83
2024/01/22 15:05:43;;;;;;;;;;;;;;;5.91;100.00;99503.06;4916513;29;19919;-80
2024/01/22 15:08:08;;;;;;;;;;;;;;;5.93;100.00;99499.47;4916577;29;20473;-80
2024/01/22 15:10:34;;;;;;;;;;;;;;;5.92;100.00;99508.28;4916420;29;19919;-79
2024/01/22 15:13:01;;;;;;;;;;;;;;;5.98;100.00;99502.88;4916496;29;19926;-79
2024/01/22 15:15:27;;;;;;;;;;;;;;;5.94;100.00;99493.31;4914537;29;19946;-79
2024/01/22 15:17:53;;;;;;;;;;;;;;;5.92;100.00;99489.88;4916369;29;20494;-79
2024/01/22 15:20:18;;;;;;;;;;;;;;;5.88;100.00;99477.69;4916523;29;19923;-79
2024/01/22 15:22:44;;;;;;;;;;;;;;;5.94;100.00;99477.53;4899232;29;19919;-79
2024/01/22 15:25:12;;;;;;;;;;;;;;;5.89;100.00;99500.47;4913595;29;19923;-80
2024/01/22 15:27:37;;;;;;;;;;;;;;;5.90;100.00;99501.31;4915526;29;20343;-79
2024/01/22 15:30:05;;;;;;;;;;;;;;;5.88;100.00;99503.16;4914875;29;20014;-80
2024/01/22 15:32:30;;;;;;;;;;;;;;;5.89;100.00;99520.63;4916131;29;19923;-80
2024/01/22 15:34:56;;;;;;;;;;;;;;;5.93;100.00;99525.75;4916146;29;20331;-80
2024/01/22 15:37:21;;;;;;;;;;;;;;;5.90;100.00;99525.84;4916124;29;19991;-79
2024/01/22 15:39:46;;;;;;;;;;;;;;;5.88;100.00;99539.97;4916036;29;20335;-80
2024/01/22 15:42:12;;;;;;;;;;;;;;;5.85;100.00;99543.53;4916053;29;19990;-79
2024/01/22 15:44:38;;;;;;;;;;;;;;;5.78;100.00;99555.97;4914855;29;19987;-80
2024/01/22 15:47:03;;;;;;;;;;;;;;;5.79;100.00;99562.97;4915856;29;20344;-81
2024/01/22 15:49:29;;;;;;;;;;;;;;;5.83;100.00;99574.25;4914566;29;19919;-78
2024/01/22 15:51:56;;;;;;;;;;;;;;;5.91;100.00;99574.91;4914796;29;19923;-79
2024/01/22 15:54:21;;;;;;;;;;;;;;;5.93;100.00;99585.41;4916092;29;19923;-87
2024/01/22 15:56:46;;;;;;;;;;;;;;;5.85;100.00;99598.75;4916008;29;20422;-78
2024/01/22 15:59:12;;;;;;;;;;;;;;;5.88;100.00;99593.41;4914486;29;19927;-80
2024/01/22 16:01:37;;;;;;;;;;;;;;;5.83;100.00;99585.63;4915787;29;20025;-80
2024/01/22 16:04:03;;;;;;;;;;;;;;;5.90;100.00;99581.06;4915793;29;20017;-80
2024/01/22 16:06:28;;;;;;;;;;;;;;;5.78;100.00;99578.78;4915861;29;19942;-77
2024/01/22 16:08:54;;;;;;;;;;;;;;;5.78;100.00;99581.41;4916045;29;20417;-83
2024/01/22 16:11:19;;;;;;;;;;;;;;;5.85;100.00;99588.22;4915998;29;20024;-80
2024/01/22 16:13:48;;;;;;;;;;;;;;;5.85;100.00;99582.97;4915148;29;19927;-80
2024/01/22 16:16:13;;;;;;;;;;;;;;;5.79;100.00;99607.69;4897978;29;19946;-80
2024/01/22 16:18:40;;;;;;;;;;;;;;;5.78;100.00;99597.19;4915719;29;20368;-80
2024/01/22 16:21:05;;;;;;;;;;;;;;;5.76;100.00;99604.25;4898599;29;20021;-78
2024/01/22 16:23:31;;;;;;;;;;;;;;;5.78;100.00;99618.22;4898753;29;20026;-82
2024/01/22 16:25:57;;;;;;;;;;;;;;;5.77;100.00;99616.50;4915385;29;19965;-81
2024/01/22 16:28:22;;;;;;;;;;;;;;;5.74;100.00;99627.94;4898603;29;20018;-78
2024/01/22 16:30:47;;;;;;;;;;;;;;;5.72;100.00;99636.78;4914456;29;19919;-85
2024/01/22 16:33:13;;;;;;;;;;;;;;;5.80;100.00;99642.72;4915677;29;20301;-80
2024/01/22 16:35:38;;;;;;;;;;;;;;;5.80;100.00;99648.81;4898649;29;19942;-80
2024/01/22 16:38:03;;;;;;;;;;;;;;;5.77;100.00;99653.31;4915647;29;19927;-78
2024/01/22 16:40:29;;;;;;;;;;;;;;;5.79;100.00;99656.75;4915392;29;19967;-79
2024/01/22 16:42:54;;;;;;;;;;;;;;;5.76;100.00;99667.34;4915366;29;19927;-81
2024/01/22 16:45:19;;;;;;;;;;;;;;;5.78;100.00;99660.31;4916305;29;19919;-82
2024/01/22 16:47:44;;;;;;;;;;;;;;;5.84;100.00;99675.94;4919216;29;20344;-78
2024/01/22 16:50:10;;;;;;;;;;;;;;;5.78;100.00;99674.31;4919393;29;19919;-80
2024/01/22 16:52:36;;;;;;;;;;;;;;;5.81;100.00;99676.84;4918939;29;19923;-77
2024/01/22 16:55:03;;;;;;;;;;;;;;;6.08;100.00;99699.88;4919111;29;20421;-81
2024/01/22 16:57:29;;;;;;;;;;;;;;;5.93;100.00;99698.47;4901893;29;19919;-79
2024/01/22 16:59:55;;;;;;;;;;;;;;;5.78;100.00;99707.63;4916727;29;19924;-78
2024/01/22 17:02:20;;;;;;;;;;;;;;;5.83;100.00;99697.84;4918766;29;20278;-78
2024/01/22 17:04:45;;;;;;;;;;;;;;;5.81;100.00;99710.19;4918908;29;20292;-80
2024/01/22 17:07:13;;;;;;;;;;;;;;;5.79;100.00;99715.47;4918829;29;19970;-76
2024/01/22 17:09:38;;;;;;;;;;;;;;;5.79;100.00;99719.84;4918899;29;19923;-77
2024/01/22 17:12:05;;;;;;;;;;;;;;;5.76;100.00;99719.94;4918886;29;20264;-79
2024/01/22 17:14:31;;;;;;;;;;;;;;;5.73;100.00;99725.28;4917421;29;20422;-79
2024/01/22 17:16:56;;;;;;;;;;;;;;;5.81;100.00;99732.06;4918600;29;19965;-79
2024/01/22 17:19:22;;;;;;;;;;;;;;;5.80;100.00;99726.84;4918567;29;19946;-78
2024/01/22 17:21:47;;;;;;;;;;;;;;;5.77;100.00;99751.44;4918573;29;20282;-80
2024/01/22 17:24:13;;;;;;;;;;;;;;;5.79;100.00;99751.41;4918425;29;20366;-79
2024/01/22 17:26:38;;;;;;;;;;;;;;;5.73;100.00;99767.34;4918816;29;19962;-78
2024/01/22 17:29:03;;;;;;;;;;;;;;;5.73;100.00;99783.13;4917410;29;19970;-77
2024/01/22 17:31:29;;;;;;;;;;;;;;;5.74;100.00;99787.47;4918713;29;19923;-76
2024/01/22 17:33:54;;;;;;;;;;;;;;;5.78;100.00;99786.50;4893629;29;19919;-86
2024/01/22 17:36:20;;;;;;;;;;;;;;;5.79;100.00;99793.47;4918267;29;19983;-78
2024/01/22 17:38:45;;;;;;;;;;;;;;;5.78;100.00;99810.19;4901260;29;19919;-80
2024/01/22 17:41:11;;;;;;;;;;;;;;;5.72;100.00;99813.78;4900977;29;20469;-77
2024/01/22 17:43:37;;;;;;;;;;;;;;;5.74;100.00;99821.66;4917252;29;19919;-78
2024/01/22 17:46:05;;;;;;;;;;;;;;;5.74;100.00;99837.41;4916749;29;19930;-80
2024/01/22 17:48:30;;;;;;;;;;;;;;;5.73;100.00;99849.72;4918066;29;19978;-77
2024/01/22 17:50:57;;;;;;;;;;;;;;;5.77;100.00;99868.91;4900939;29;20009;-80
2024/01/22 17:53:23;;;;;;;;;;;;;;;5.77;100.00;99868.91;4917934;29;19919;-82
2024/01/22 17:55:48;;;;;;;;;;;;;;;5.74;100.00;99874.22;4917358;29;20335;-79
2024/01/22 17:58:13;;;;;;;;;;;;;;;5.75;100.00;99886.50;4917841;29;19915;-79
2024/01/22 18:00:40;;;;;;;;;;;;;;;5.77;100.00;99892.56;4899502;29;20299;-80
2024/01/22 18:03:06;;;;;;;;;;;;;;;5.85;100.00;99900.31;4917730;29;20383;-79
2024/01/22 18:05:31;;;;;;;;;;;;;;;5.80;100.00;99900.41;4917846;29;19927;-78
2024/01/22 18:07:57;;;;;;;;;;;;;;;5.79;100.00;99909.19;4917470;29;19919;-79
2024/01/22 18:10:23;;;;;;;;;;;;;;;5.85;100.00;99914.31;4917612;29;19923;-78
2024/01/22 18:12:48;;;;;;;;;;;;;;;5.77;100.00;99916.25;4916840;29;20360;-78
2024/01/22 18:15:14;;;;;;;;;;;;;;;5.78;100.00;99925.88;4899466;29;19923;-78
2024/01/22 18:17:39;;;;;;;;;;;;;;;5.78;100.00;99934.63;4917558;29;19962;-78
2024/01/22 18:20:04;;;;;;;;;;;;;;;5.73;100.00;99931.22;4917593;29;19919;-77
2024/01/22 18:22:30;;;;;;;;;;;;;;;5.72;100.00;99941.78;4916935;29;20398;-77
2024/01/22 18:24:56;;;;;;;;;;;;;;;5.71;100.00;99942.66;4917361;29;19919;-81
2024/01/22 18:27:21;;;;;;;;;;;;;;;5.81;100.00;99950.34;4917348;29;20009;-78
2024/01/22 18:29:46;;;;;;;;;;;;;;;5.77;100.00;99958.31;4918052;29;19923;-78
2024/01/22 18:32:11;;;;;;;;;;;;;;;5.81;100.00;99952.09;4917708;29;19927;-79
2024/01/22 18:34:37;;;;;;;;;;;;;;;5.72;100.00;99960.19;4900801;29;19926;-75
2024/01/22 18:37:03;;;;;;;;;;;;;;;5.75;100.00;99953.09;4917643;29;19927;-77
2024/01/22 18:39:28;;;;;;;;;;;;;;;5.73;100.00;99961.91;4918202;29;19919;-80
2024/01/22 18:41:54;;;;;;;;;;;;;;;5.79;100.00;99961.78;4917456;29;20058;-78
2024/01/22 18:44:19;;;;;;;;;;;;;;;5.73;100.00;99961.91;4916191;29;20021;-78
2024/01/22 18:46:44;;;;;;;;;;;;;;;5.76;100.00;99973.22;4917584;29;19929;-81
2024/01/22 18:49:09;;;;;;;;;;;;;;;5.82;100.00;99972.22;4900493;29;19919;-77
2024/01/22 18:51:35;;;;;;;;;;;;;;;5.77;100.00;99987.22;4918289;29;20055;-79
2024/01/22 18:54:00;;;;;;;;;;;;;;;5.76;100.00;99993.38;4917587;29;19983;-76
2024/01/22 18:56:27;;;;;;;;;;;;;;;5.71;100.00;100001.38;4917459;29;20451;-78
2024/01/22 18:58:52;;;;;;;;;;;;;;;5.75;100.00;99989.91;4916360;29;20291;-79
2024/01/22 19:01:17;;;;;;;;;;;;;;;5.73;100.00;100004.00;4916128;29;19927;-78
2024/01/22 19:03:43;;;;;;;;;;;;;;;5.74;100.00;100013.59;4915671;29;20013;-80
2024/01/22 19:06:09;;;;;;;;;;;;;;;5.74;100.00;100032.00;4915108;29;20402;-80
2024/01/22 19:08:34;;;;;;;;;;;;;;;5.73;100.00;100035.53;4915071;29;19929;-77
2024/01/22 19:10:59;;;;;;;;;;;;;;;5.79;100.00;100044.16;4914815;29;20362;-77
2024/01/22 19:13:24;;;;;;;;;;;;;;;5.74;100.00;100053.88;4915673;29;19923;-80
2024/01/22 19:15:50;;;;;;;;;;;;;;;5.81;100.00;100044.16;4914127;29;19927;-78
2024/01/22 19:18:16;;;;;;;;;;;;;;;5.76;100.00;100060.00;4915457;29;19927;-76
2024/01/22 19:20:41;;;;;;;;;;;;;;;5.72;100.00;100054.84;4898377;29;19923;-82
2024/01/22 19:23:06;;;;;;;;;;;;;;;5.69;100.00;100062.78;4898420;29;19930;-82
2024/01/22 19:25:32;;;;;;;;;;;;;;;5.73;100.00;100053.94;4898215;29;20272;-79
2024/01/22 19:27:58;;;;;;;;;;;;;;;5.72;100.00;100050.44;4915107;29;20075;-78
2024/01/22 19:30:23;;;;;;;;;;;;;;;5.75;100.00;100054.78;4914339;29;20449;-77
2024/01/22 19:32:48;;;;;;;;;;;;;;;5.71;100.00;100053.09;4915433;29;19978;-80
2024/01/22 19:35:15;;;;;;;;;;;;;;;5.75;100.00;100060.03;4898138;29;19923;-79
2024/01/22 19:37:41;;;;;;;;;;;;;;;5.69;100.00;100081.19;4898147;29;20358;-79
2024/01/22 19:40:07;;;;;;;;;;;;;;;5.65;100.00;100069.84;4915082;29;19998;-78
2024/01/22 19:42:32;;;;;;;;;;;;;;;5.69;100.00;100057.50;4914932;29;19930;-80
2024/01/22 19:44:59;;;;;;;;;;;;;;;5.64;100.00;100052.34;4897091;29;20315;-80
2024/01/22 19:47:27;;;;;;;;;;;;;;;5.71;100.00;100061.88;4915423;29;20275;-80
2024/01/22 19:49:52;;;;;;;;;;;;;;;5.66;100.00;100052.31;4915519;29;19930;-79
2024/01/22 19:52:17;;;;;;;;;;;;;;;5.65;100.00;100048.81;4915149;29;20299;-77
2024/01/22 19:54:43;;;;;;;;;;;;;;;5.65;100.00;100059.34;4914552;29;19919;-77
2024/01/22 19:57:08;;;;;;;;;;;;;;;5.66;100.00;100061.06;4897548;29;19969;-77
2024/01/22 19:59:34;;;;;;;;;;;;;;;5.66;100.00;100068.09;4881486;29;20420;-80
2024/01/22 20:01:59;;;;;;;;;;;;;;;5.67;100.00;100065.44;4914425;29;20458;-81
2024/01/22 20:04:24;;;;;;;;;;;;;;;5.62;100.00;100073.41;4914606;29;19923;-80
2024/01/22 20:06:50;;;;;;;;;;;;;;;5.58;100.00;100068.22;4914448;29;19927;-81
2024/01/22 20:09:16;;;;;;;;;;;;;;;5.60;100.00;100063.78;4914784;29;19919;-80
2024/01/22 20:11:42;;;;;;;;;;;;;;;5.60;100.00;100067.31;4897759;29;20389;-78
2024/01/22 20:14:07;;;;;;;;;;;;;;;5.60;100.00;100074.31;4913500;29;19919;-78
2024/01/22 20:16:32;;;;;;;;;;;;;;;5.67;100.00;100072.47;4914359;29;19931;-80
2024/01/22 20:18:58;;;;;;;;;;;;;;;5.59;100.00;100065.56;4914514;29;19923;-79
2024/01/22 20:21:23;;;;;;;;;;;;;;;5.67;100.00;100072.47;4917807;29;20341;-79
2024/01/22 20:23:48;;;;;;;;;;;;;;;5.65;100.00;100072.50;4901657;29;19926;-81
2024/01/22 20:26:13;;;;;;;;;;;;;;;5.69;100.00;100068.03;4918397;29;19923;-79
2024/01/22 20:28:39;;;;;;;;;;;;;;;5.64;100.00;100068.97;4918606;29;19942;-81
2024/01/22 20:31:04;;;;;;;;;;;;;;;5.67;100.00;100073.31;4916917;29;20022;-79
2024/01/22 20:33:30;;;;;;;;;;;;;;;5.71;100.00;100079.38;4917159;29;19931;-86
2024/01/22 20:35:55;;;;;;;;;;;;;;;5.68;100.00;100085.59;4918091;29;19923;-84
2024/01/22 20:38:20;;;;;;;;;;;;;;;5.68;100.00;100085.59;4918044;29;19931;-83
2024/01/22 20:40:46;;;;;;;;;;;;;;;5.63;100.00;100088.28;4917817;29;19923;-80
2024/01/22 20:43:12;;;;;;;;;;;;;;;5.68;100.00;100087.31;4918165;29;19923;-83
2024/01/22 20:45:37;;;;;;;;;;;;;;;5.67;100.00;100101.38;4916785;29;19967;-78
2024/01/22 20:48:02;;;;;;;;;;;;;;;5.63;100.00;100093.53;4918480;29;19931;-81
2024/01/22 20:50:28;;;;;;;;;;;;;;;5.64;100.00;100104.91;4917771;29;20459;-79
2024/01/22 20:52:53;;;;;;;;;;;;;;;5.61;100.00;100103.19;4918178;29;19927;-79
2024/01/22 20:55:22;;;;;;;;;;;;;;;5.68;100.00;100108.34;4917456;29;19927;-77
2024/01/22 20:57:49;;;;;;;;;;;;;;;5.64;100.00;100110.19;4917887;29;19926;-82
2024/01/22 21:00:15;;;;;;;;;;;;;;;5.61;100.00;100116.34;4916666;29;19986;-80
2024/01/22 21:02:41;;;;;;;;;;;;;;;5.60;100.00;100119.88;4918014;29;19923;-79
2024/01/22 21:05:07;;;;;;;;;;;;;;;5.67;100.00;100115.38;4917887;29;19930;-79
2024/01/22 21:07:33;;;;;;;;;;;;;;;5.64;100.00;100118.06;4900291;29;19923;-79
2024/01/22 21:09:58;;;;;;;;;;;;;;;5.66;100.00;100110.16;4917674;29;19982;-77
2024/01/22 21:12:23;;;;;;;;;;;;;;;5.66;100.00;100108.38;4917802;29;20006;-77
2024/01/22 21:14:49;;;;;;;;;;;;;;;5.74;100.00;100110.88;4916870;29;19919;-83
2024/01/22 21:17:14;;;;;;;;;;;;;;;5.78;100.00;100118.69;4918486;29;19970;-81
2024/01/22 21:19:39;;;;;;;;;;;;;;;5.72;100.00;100115.31;4918099;29;20402;-78
2024/01/22 21:22:04;;;;;;;;;;;;;;;5.69;100.00;100118.84;4917687;29;20387;-80
2024/01/22 21:24:30;;;;;;;;;;;;;;;5.69;100.00;100123.25;4900190;29;19990;-81
2024/01/22 21:26:56;;;;;;;;;;;;;;;5.72;100.00;100144.22;4917527;29;19933;-82
2024/01/22 21:29:22;;;;;;;;;;;;;;;5.72;100.00;100150.34;4916006;29;20526;-80
2024/01/22 21:31:47;;;;;;;;;;;;;;;5.66;100.00;100152.22;4917188;29;20025;-81
2024/01/22 21:34:12;;;;;;;;;;;;;;;5.64;100.00;100149.63;4917680;29;19930;-78
2024/01/22 21:36:38;;;;;;;;;;;;;;;5.70;100.00;100159.16;4917368;29;19930;-81
2024/01/22 21:39:03;;;;;;;;;;;;;;;5.68;100.00;100159.19;4917387;29;19959;-79